createdAt,value
2023-10-04T00:00:51.670Z,32.14
2023-10-04T00:01:55.435Z,32.20
2023-10-04T00:02:59.546Z,32.29
2023-10-04T00:04:03.727Z,32.19
2023-10-04T00:05:08.052Z,32.18
2023-10-04T00:06:11.966Z,32.14
2023-10-04T00:07:15.837Z,32.47
2023-10-04T00:08:19.697Z,32.07
2023-10-04T00:09:23.561Z,32.21
2023-10-04T00:10:27.404Z,32.17
2023-10-04T00:11:31.355Z,32.19
2023-10-04T00:12:36.805Z,32.74
2023-10-04T00:13:40.652Z,32.57
2023-10-04T00:14:44.473Z,32.18
2023-10-04T00:15:48.295Z,32.40
2023-10-04T00:16:52.269Z,32.20
2023-10-04T00:17:56.455Z,32.40
2023-10-04T00:19:00.462Z,32.35
2023-10-04T00:20:04.386Z,32.38
2023-10-04T00:21:08.463Z,32.43
2023-10-04T00:22:12.404Z,32.32
2023-10-04T00:23:16.218Z,32.13
2023-10-04T00:24:20.034Z,32.18
2023-10-04T00:25:24.121Z,32.10
2023-10-04T00:26:27.894Z,32.19
2023-10-04T00:27:31.845Z,32.48
2023-10-04T00:28:37.703Z,32.84
2023-10-04T00:29:41.840Z,32.49
2023-10-04T00:30:45.649Z,32.18
2023-10-04T00:31:49.535Z,32.32
2023-10-04T00:32:53.800Z,32.45
2023-10-04T00:34:00.204Z,32.85
2023-10-04T00:35:04.262Z,32.51
2023-10-04T00:36:08.158Z,32.48
2023-10-04T00:37:12.004Z,32.54
2023-10-04T00:38:15.927Z,32.76
2023-10-04T00:39:19.869Z,32.62
2023-10-04T00:40:25.848Z,33.02
2023-10-04T00:41:29.889Z,32.60
2023-10-04T00:42:33.993Z,32.59
2023-10-04T00:43:50.653Z,33.46
2023-10-04T00:44:54.655Z,32.50
2023-10-04T00:45:58.608Z,32.35
2023-10-04T00:47:02.483Z,32.48
2023-10-04T00:48:09.421Z,32.96
2023-10-04T00:49:13.432Z,32.40
2023-10-04T00:50:17.946Z,32.79
2023-10-04T00:51:22.277Z,32.73
2023-10-04T00:52:26.191Z,32.43
2023-10-04T00:53:30.292Z,32.42
2023-10-04T00:54:34.312Z,32.35
2023-10-04T00:55:38.841Z,32.37
2023-10-04T00:56:42.840Z,32.41
2023-10-04T00:57:48.175Z,32.46
2023-10-04T00:58:54.907Z,32.79
2023-10-04T00:59:59.085Z,32.52
2023-10-04T01:01:02.938Z,32.80
2023-10-04T01:02:07.862Z,32.86
2023-10-04T01:03:12.164Z,32.82
2023-10-04T01:04:16.348Z,32.52
2023-10-04T01:05:20.307Z,32.83
2023-10-04T01:06:24.639Z,32.60
2023-10-04T01:07:28.585Z,32.50
2023-10-04T01:08:32.785Z,32.60
2023-10-04T01:09:36.636Z,32.42
2023-10-04T01:10:40.621Z,32.56
2023-10-04T01:11:50.572Z,32.87
2023-10-04T01:12:54.496Z,32.32
2023-10-04T01:13:59.857Z,32.84
2023-10-04T01:15:03.652Z,32.45
2023-10-04T01:16:07.460Z,32.59
2023-10-04T01:17:11.285Z,32.63
2023-10-04T01:18:15.654Z,32.88
2023-10-04T01:19:19.495Z,32.74
2023-10-04T01:20:23.543Z,32.86
2023-10-04T01:21:27.263Z,32.85
2023-10-04T01:22:32.936Z,33.12
2023-10-04T01:23:36.839Z,32.65
2023-10-04T01:24:40.594Z,32.51
2023-10-04T01:25:45.941Z,32.81
2023-10-04T01:26:49.793Z,32.58
2023-10-04T01:27:53.515Z,32.43
2023-10-04T01:28:57.460Z,32.20
2023-10-04T01:30:01.244Z,32.17
2023-10-04T01:31:05.021Z,32.44
2023-10-04T01:32:08.803Z,32.28
2023-10-04T01:33:13.296Z,32.14
2023-10-04T01:34:17.145Z,32.17
2023-10-04T01:35:20.933Z,32.10
2023-10-04T01:36:24.727Z,32.42
2023-10-04T01:37:28.503Z,32.15
2023-10-04T01:38:33.918Z,32.36
2023-10-04T01:39:37.973Z,32.12
2023-10-04T01:40:41.798Z,32.00
2023-10-04T01:41:45.573Z,31.70
2023-10-04T01:42:49.377Z,31.88
2023-10-04T01:43:53.162Z,31.76
2023-10-04T01:44:57.514Z,32.31
2023-10-04T01:46:02.152Z,32.20
2023-10-04T01:47:06.002Z,32.05
2023-10-04T01:48:09.802Z,32.05
2023-10-04T01:49:13.570Z,32.13
2023-10-04T01:50:17.537Z,31.97
2023-10-04T01:51:21.418Z,32.12
2023-10-04T01:52:25.200Z,31.97
2023-10-04T01:53:28.901Z,31.89
2023-10-04T01:54:34.455Z,32.14
2023-10-04T01:55:38.394Z,31.66
2023-10-04T01:56:42.240Z,32.00
2023-10-04T01:57:46.495Z,31.36
2023-10-04T01:58:50.227Z,31.39
2023-10-04T01:59:54.099Z,31.57
2023-10-04T02:00:58.020Z,31.75
2023-10-04T02:02:02.003Z,31.63
2023-10-04T02:03:09.062Z,31.30
2023-10-04T02:04:13.071Z,31.40
2023-10-04T02:05:17.145Z,31.80
2023-10-04T02:06:21.062Z,31.15
2023-10-04T02:07:25.184Z,31.22
2023-10-04T02:08:28.933Z,31.74
2023-10-04T02:09:34.453Z,31.58
2023-10-04T02:10:38.520Z,30.92
2023-10-04T02:11:42.610Z,31.02
2023-10-04T02:12:46.480Z,30.49
2023-10-04T02:13:50.231Z,30.66
2023-10-04T02:14:54.089Z,31.07
2023-10-04T02:15:58.060Z,31.00
2023-10-04T02:17:02.024Z,30.32
2023-10-04T02:18:06.409Z,30.35
2023-10-04T02:19:10.993Z,30.61
2023-10-04T02:20:15.892Z,30.76
2023-10-04T02:21:19.642Z,30.77
2023-10-04T02:22:23.441Z,30.39
2023-10-04T02:23:27.318Z,30.80
2023-10-04T02:24:31.082Z,30.57
2023-10-04T02:25:36.538Z,30.42
2023-10-04T02:26:40.294Z,30.76
2023-10-04T02:27:44.133Z,30.26
2023-10-04T02:28:47.884Z,30.31
2023-10-04T02:29:51.632Z,30.74
2023-10-04T02:30:55.604Z,30.42
2023-10-04T02:31:59.804Z,30.39
2023-10-04T02:33:03.867Z,30.51
2023-10-04T02:34:07.946Z,30.31
2023-10-04T02:35:13.544Z,30.78
2023-10-04T02:36:17.349Z,31.08
2023-10-04T02:37:21.210Z,30.84
2023-10-04T02:38:25.216Z,31.12
2023-10-04T02:39:29.090Z,31.06
2023-10-04T02:40:33.040Z,31.11
2023-10-04T02:41:38.442Z,31.13
2023-10-04T02:42:42.188Z,31.24
2023-10-04T02:43:45.950Z,30.92
2023-10-04T02:44:49.678Z,30.84
2023-10-04T02:45:53.640Z,30.57
2023-10-04T02:46:57.592Z,30.85
2023-10-04T02:48:01.449Z,30.85
2023-10-04T02:49:05.492Z,30.79
2023-10-04T02:50:09.809Z,30.92
2023-10-04T02:51:13.662Z,30.61
2023-10-04T02:52:17.427Z,31.00
2023-10-04T02:53:21.782Z,30.87
2023-10-04T02:54:25.584Z,31.16
2023-10-04T02:55:29.303Z,31.09
2023-10-04T02:56:33.207Z,31.12
2023-10-04T02:57:38.724Z,30.63
2023-10-04T02:58:42.476Z,31.29
2023-10-04T02:59:46.228Z,31.34
2023-10-04T03:00:50.089Z,31.33
2023-10-04T03:01:54.016Z,30.93
2023-10-04T03:02:57.782Z,30.94
2023-10-04T03:04:01.561Z,31.42
2023-10-04T03:05:05.738Z,31.38
2023-10-04T03:06:09.750Z,31.35
2023-10-04T03:07:13.655Z,31.02
2023-10-04T03:08:17.441Z,30.83
2023-10-04T03:09:21.362Z,31.28
2023-10-04T03:10:26.171Z,30.66
2023-10-04T03:11:29.960Z,31.29
2023-10-04T03:12:33.842Z,31.02
2023-10-04T03:13:39.341Z,31.15
2023-10-04T03:14:43.092Z,31.63
2023-10-04T03:15:47.005Z,31.55
2023-10-04T03:16:50.868Z,31.66
2023-10-04T03:17:55.493Z,31.42
2023-10-04T03:18:59.564Z,31.37
2023-10-04T03:20:03.517Z,31.36
2023-10-04T03:21:07.331Z,31.08
2023-10-04T03:22:11.113Z,31.55
2023-10-04T03:23:14.830Z,31.24
2023-10-04T03:24:18.571Z,31.09
2023-10-04T03:25:22.481Z,31.30
2023-10-04T03:26:26.426Z,30.90
2023-10-04T03:27:30.606Z,31.16
2023-10-04T03:28:35.912Z,30.79
2023-10-04T03:29:41.402Z,30.49
2023-10-04T03:30:45.343Z,31.38
2023-10-04T03:31:49.160Z,30.63
2023-10-04T03:32:53.129Z,30.94
2023-10-04T03:34:03.204Z,30.57
2023-10-04T20:01:44.813Z,100.00
2023-10-04T20:02:49.377Z,100.00
2023-10-04T20:03:53.573Z,100.00
2023-10-04T20:04:57.733Z,100.00
2023-10-04T20:06:01.779Z,100.00
2023-10-04T20:07:05.811Z,100.00
2023-10-04T20:08:09.700Z,100.00
2023-10-04T20:09:13.566Z,100.00
2023-10-04T20:10:18.633Z,100.00
2023-10-04T20:11:22.604Z,100.00
2023-10-04T20:12:26.608Z,100.00
2023-10-04T20:13:30.637Z,100.00
2023-10-04T20:14:34.480Z,100.00
2023-10-04T20:15:38.550Z,100.00
2023-10-04T20:16:44.050Z,100.00
2023-10-04T20:17:47.902Z,100.00
2023-10-04T20:18:51.856Z,100.00
2023-10-04T20:19:55.671Z,100.00
2023-10-04T20:20:59.471Z,100.00
2023-10-04T20:22:03.244Z,100.00
2023-10-04T20:23:07.348Z,100.00
2023-10-04T20:24:11.097Z,100.00
2023-10-04T20:25:15.014Z,100.00
2023-10-04T20:26:19.097Z,100.00
2023-10-04T20:27:22.977Z,100.00
2023-10-04T20:28:26.834Z,100.00
2023-10-04T20:29:30.731Z,100.00
2023-10-04T20:30:34.672Z,100.00
2023-10-04T20:31:38.742Z,100.00
2023-10-04T20:32:45.257Z,100.00
2023-10-04T20:33:49.000Z,100.00
2023-10-04T20:34:52.949Z,100.00
2023-10-04T20:35:56.787Z,100.00
2023-10-04T20:37:00.572Z,100.00
2023-10-04T20:38:04.484Z,100.00
2023-10-04T20:39:08.308Z,100.00
2023-10-04T20:40:12.785Z,100.00
2023-10-04T20:41:16.812Z,100.00
2023-10-04T20:42:20.762Z,100.00
2023-10-04T20:43:24.531Z,100.00
2023-10-04T20:44:28.264Z,100.00
2023-10-04T20:45:32.438Z,100.00
2023-10-04T20:46:36.506Z,100.00
2023-10-04T20:47:40.678Z,100.00
2023-10-04T20:48:46.215Z,100.00
2023-10-04T20:49:49.969Z,100.00
2023-10-04T20:50:53.676Z,100.00
2023-10-04T20:51:58.060Z,100.00
2023-10-04T20:53:01.952Z,100.00
2023-10-04T20:54:06.254Z,100.00
2023-10-04T20:55:10.788Z,100.00
2023-10-04T20:56:14.605Z,100.00
2023-10-04T20:57:18.470Z,100.00
2023-10-04T20:58:22.274Z,100.00
2023-10-04T20:59:26.075Z,100.00
2023-10-04T21:00:29.866Z,100.00
2023-10-04T21:01:33.775Z,100.00
2023-10-04T21:02:37.604Z,100.00
2023-10-04T21:03:41.437Z,100.00
2023-10-04T21:04:47.394Z,100.00
2023-10-04T21:05:51.401Z,100.00
2023-10-04T21:06:55.300Z,100.00
2023-10-04T21:08:00.672Z,100.00
2023-10-04T21:09:04.671Z,100.00
2023-10-04T21:10:09.493Z,100.00
2023-10-04T21:11:13.493Z,100.00
2023-10-04T21:12:17.326Z,100.00
2023-10-04T21:13:21.171Z,100.00
2023-10-04T21:14:24.927Z,100.00
2023-10-04T21:15:28.769Z,100.00
2023-10-04T21:16:32.669Z,100.00
2023-10-04T21:17:36.445Z,100.00
2023-10-04T21:18:40.522Z,100.00
2023-10-04T21:19:45.937Z,100.00
2023-10-04T21:20:49.851Z,100.00
2023-10-04T21:21:53.662Z,100.00
2023-10-04T21:22:57.528Z,100.00
2023-10-04T21:24:15.139Z,100.00
2023-10-04T21:25:21.636Z,100.00
2023-10-04T21:26:25.397Z,100.00
2023-10-04T21:27:29.367Z,100.00
2023-10-04T21:28:33.369Z,100.00
2023-10-04T21:29:37.193Z,100.00
2023-10-04T21:30:41.077Z,100.00
2023-10-04T21:31:45.264Z,100.00
2023-10-04T21:32:49.234Z,100.00
2023-10-04T21:33:53.408Z,100.00
2023-10-04T21:34:58.979Z,100.00
2023-10-04T21:36:02.816Z,100.00
2023-10-04T21:37:09.617Z,100.00
2023-10-04T21:38:13.513Z,100.00
2023-10-04T21:39:17.589Z,100.00
2023-10-04T21:40:21.515Z,100.00
2023-10-04T21:41:25.371Z,100.00
2023-10-04T21:42:29.050Z,100.00
2023-10-04T21:43:32.871Z,100.00
2023-10-04T21:44:36.623Z,100.00
2023-10-04T21:45:40.379Z,100.00
2023-10-04T21:46:44.187Z,100.00
2023-10-04T21:47:48.066Z,100.00
2023-10-04T21:48:52.320Z,100.00
2023-10-04T21:49:58.542Z,100.00
2023-10-04T21:51:02.303Z,100.00
2023-10-04T21:52:06.479Z,100.00
2023-10-04T21:53:10.531Z,100.00
2023-10-04T21:54:14.414Z,100.00
2023-10-04T21:55:18.154Z,100.00
2023-10-04T21:56:21.857Z,100.00
2023-10-04T21:57:25.566Z,100.00
2023-10-04T21:58:29.369Z,100.00
2023-10-04T21:59:34.079Z,100.00
2023-10-04T22:00:37.857Z,100.00
2023-10-04T22:01:42.308Z,100.00
2023-10-04T22:02:46.240Z,100.00
2023-10-04T22:03:50.294Z,100.00
2023-10-04T22:04:54.234Z,100.00
2023-10-04T22:05:59.707Z,100.00
2023-10-04T22:07:20.511Z,100.00
2023-10-04T22:08:25.616Z,100.00
2023-10-04T22:09:29.410Z,100.00
2023-10-04T22:10:33.317Z,100.00
2023-10-04T22:11:37.037Z,100.00
2023-10-04T22:12:40.819Z,100.00
2023-10-04T22:13:44.925Z,100.00
2023-10-04T22:14:48.654Z,100.00
2023-10-04T22:15:53.999Z,100.00
2023-10-04T22:16:57.788Z,100.00
2023-10-04T22:18:01.618Z,100.00
2023-10-04T22:19:05.432Z,100.00
2023-10-04T22:20:10.158Z,100.00
2023-10-04T22:21:15.633Z,100.00
2023-10-04T22:22:19.400Z,100.00
2023-10-04T22:23:55.302Z,100.00
2023-10-04T22:25:02.971Z,100.00
2023-10-04T22:26:07.283Z,100.00
2023-10-04T22:27:11.316Z,100.00
2023-10-04T22:28:15.302Z,100.00
2023-10-04T22:29:27.166Z,100.00
2023-10-04T22:30:37.158Z,100.00
2023-10-04T22:31:41.324Z,100.00
2023-10-04T22:32:45.305Z,100.00
2023-10-04T22:33:50.345Z,100.00
2023-10-04T22:34:54.207Z,100.00
2023-10-04T22:35:57.980Z,100.00
2023-10-04T22:37:03.768Z,100.00
2023-10-04T22:38:07.752Z,100.00
2023-10-04T22:39:11.544Z,100.00
2023-10-04T22:40:17.949Z,100.00
2023-10-04T22:41:22.117Z,100.00
2023-10-04T22:42:25.948Z,100.00
2023-10-04T22:43:29.741Z,100.00
2023-10-04T22:44:36.323Z,100.00
2023-10-04T22:45:40.121Z,100.00
2023-10-04T22:46:44.306Z,100.00
2023-10-04T22:47:50.807Z,100.00
2023-10-04T22:48:55.247Z,100.00
2023-10-04T22:49:58.971Z,100.00
2023-10-04T22:51:02.654Z,100.00
2023-10-04T22:52:08.092Z,100.00
2023-10-04T22:53:11.836Z,100.00
2023-10-04T22:54:15.769Z,100.00
2023-10-04T22:55:19.587Z,100.00
2023-10-04T22:56:23.753Z,100.00
2023-10-04T22:57:27.601Z,100.00
2023-10-04T22:58:31.386Z,100.00
2023-10-04T22:59:35.112Z,100.00
2023-10-04T23:00:38.822Z,100.00
2023-10-04T23:01:42.674Z,100.00
2023-10-04T23:02:46.669Z,100.00
2023-10-04T23:03:50.829Z,100.00
2023-10-04T23:04:54.713Z,100.00
2023-10-04T23:06:05.368Z,100.00
2023-10-04T23:07:10.821Z,100.00
2023-10-04T23:08:14.577Z,100.00
2023-10-04T23:09:18.574Z,100.00
2023-10-04T23:10:23.049Z,100.00
2023-10-04T23:11:27.134Z,100.00
2023-10-04T23:12:30.838Z,100.00
2023-10-04T23:13:34.719Z,100.00
2023-10-04T23:14:38.539Z,100.00
2023-10-04T23:15:42.454Z,100.00
2023-10-04T23:16:46.269Z,100.00
2023-10-04T23:17:50.206Z,100.00
2023-10-04T23:18:54.105Z,100.00
2023-10-04T23:19:58.239Z,100.00
2023-10-04T23:21:02.450Z,100.00
2023-10-04T23:22:06.214Z,100.00
2023-10-04T23:23:11.833Z,100.00
2023-10-04T23:24:15.825Z,100.00
2023-10-04T23:25:19.847Z,100.00
2023-10-04T23:26:23.747Z,100.00
2023-10-04T23:27:27.653Z,100.00
2023-10-04T23:28:31.553Z,100.00
2023-10-04T23:29:35.376Z,100.00
2023-10-04T23:30:39.466Z,100.00
2023-10-04T23:31:43.485Z,100.00
2023-10-04T23:32:50.435Z,100.00
2023-10-04T23:33:54.284Z,100.00
2023-10-04T23:34:58.287Z,100.00
2023-10-04T23:36:02.055Z,100.00
2023-10-04T23:37:05.834Z,100.00
2023-10-04T23:38:12.845Z,100.00
2023-10-04T23:39:16.761Z,100.00
2023-10-04T23:40:20.646Z,100.00
2023-10-04T23:41:24.451Z,100.00
2023-10-04T23:42:28.357Z,100.00
2023-10-04T23:43:32.169Z,100.00
2023-10-04T23:44:35.977Z,100.00
2023-10-04T23:45:39.782Z,100.00
2023-10-04T23:46:43.588Z,100.00
2023-10-04T23:47:47.550Z,100.00
2023-10-04T23:48:51.384Z,100.00
2023-10-04T23:49:55.172Z,100.00
2023-10-04T23:50:58.944Z,100.00
2023-10-04T23:52:02.909Z,100.00
2023-10-04T23:53:06.798Z,100.00
2023-10-04T23:54:12.483Z,100.00
2023-10-04T23:55:16.420Z,100.00
2023-10-04T23:56:20.257Z,100.00
2023-10-04T23:57:24.169Z,100.00
2023-10-04T23:58:27.947Z,100.00
2023-10-04T23:59:31.922Z,100.00
